MED1 KBHM-KHSV
Flight info
| Callsign | MED1 |
|---|---|
| Flight time | 0h 28m |
| Altitude | 12000 |
| Route | VUZ/N0348F110 |
| Aircraft | E190/M-SDE3GILORVW/S |
Departure
| Time | 2026-04-16 21:08 |
|---|---|
| Airport | Birmingham-Shuttlesworth International Airport (KBHM) |
Arrival
| Time | 2026-04-16 21:36 |
|---|---|
| Airport | Huntsville International Airport (KHSV) |
| Time | Latitude | Longitude | Altitude | Speed | Heading |
|---|---|---|---|---|---|
| 2026-04-16 20:51 | 33.55592 | -86.77416 | 591 ft | 0 kts | 148° |
| 2026-04-16 21:05 | 33.55589 | -86.77415 | 591 ft | 2 kts | 174° |
| 2026-04-16 21:05 | 33.55633 | -86.77368 | 590 ft | 21 kts | 58° |
| 2026-04-16 21:05 | 33.55688 | -86.77270 | 592 ft | 0 kts | 61° |
| 2026-04-16 21:06 | 33.55697 | -86.77223 | 593 ft | 16 kts | 124° |
| 2026-04-16 21:06 | 33.55632 | -86.77228 | 590 ft | 15 kts | 229° |
| 2026-04-16 21:06 | 33.55557 | -86.77205 | 589 ft | 0 kts | 150° |
| 2026-04-16 21:06 | 33.55517 | -86.77169 | 590 ft | 19 kts | 129° |
| 2026-04-16 21:07 | 33.55578 | -86.76979 | 598 ft | 40 kts | 55° |
| 2026-04-16 21:07 | 33.55861 | -86.76493 | 603 ft | 101 kts | 55° |
| 2026-04-16 21:07 | 33.56340 | -86.75677 | 682 ft | 132 kts | 53° |
| 2026-04-16 21:07 | 33.56887 | -86.74756 | 1216 ft | 138 kts | 56° |
| 2026-04-16 21:08 | 33.57416 | -86.73801 | 1887 ft | 139 kts | 54° |
| 2026-04-16 21:08 | 33.58142 | -86.73101 | 2578 ft | 136 kts | 0° |
| 2026-04-16 21:08 | 33.58976 | -86.73620 | 2756 ft | 158 kts | 297° |
| 2026-04-16 21:08 | 33.59413 | -86.75036 | 2578 ft | 189 kts | 283° |
| 2026-04-16 21:09 | 33.59688 | -86.76483 | 3662 ft | 171 kts | 277° |
| 2026-04-16 21:09 | 33.59908 | -86.77851 | 4620 ft | 164 kts | 277° |
| 2026-04-16 21:09 | 33.60089 | -86.79184 | 5503 ft | 160 kts | 276° |
| 2026-04-16 21:09 | 33.60215 | -86.80503 | 6392 ft | 159 kts | 273° |
| 2026-04-16 21:10 | 33.60286 | -86.81819 | 7251 ft | 157 kts | 270° |
| 2026-04-16 21:10 | 33.60324 | -86.83120 | 8042 ft | 160 kts | 279° |
| 2026-04-16 21:10 | 33.60913 | -86.84394 | 8423 ft | 190 kts | 305° |
| 2026-04-16 21:10 | 33.61961 | -86.85393 | 9187 ft | 193 kts | 331° |
| 2026-04-16 21:11 | 33.63149 | -86.85987 | 10198 ft | 176 kts | 328° |
| 2026-04-16 21:11 | 33.64110 | -86.86765 | 11046 ft | 160 kts | 312° |
| 2026-04-16 21:11 | 33.64914 | -86.87638 | 11844 ft | 152 kts | 309° |
| 2026-04-16 21:11 | 33.65671 | -86.88488 | 12608 ft | 147 kts | 308° |
| 2026-04-16 21:12 | 33.66462 | -86.89251 | 13359 ft | 148 kts | 319° |
| 2026-04-16 21:12 | 33.67435 | -86.89711 | 14069 ft | 154 kts | 334° |
| 2026-04-16 21:12 | 33.68533 | -86.89801 | 14697 ft | 163 kts | 353° |
| 2026-04-16 21:12 | 33.69663 | -86.89645 | 15308 ft | 162 kts | 352° |
| 2026-04-16 21:13 | 33.70772 | -86.89512 | 15902 ft | 162 kts | 352° |
| 2026-04-16 21:13 | 33.71895 | -86.89371 | 16501 ft | 163 kts | 352° |
| 2026-04-16 21:13 | 33.73022 | -86.89227 | 17078 ft | 163 kts | 352° |
| 2026-04-16 21:13 | 33.74157 | -86.89083 | 17675 ft | 164 kts | 351° |
| 2026-04-16 21:14 | 33.75299 | -86.88936 | 18262 ft | 165 kts | 351° |
| 2026-04-16 21:14 | 33.76445 | -86.88791 | 18788 ft | 166 kts | 350° |
| 2026-04-16 21:14 | 33.77594 | -86.88643 | 19296 ft | 166 kts | 349° |
| 2026-04-16 21:14 | 33.78744 | -86.88498 | 19806 ft | 166 kts | 348° |
| 2026-04-16 21:15 | 33.79898 | -86.88348 | 20319 ft | 167 kts | 348° |
| 2026-04-16 21:15 | 33.81049 | -86.88200 | 20833 ft | 166 kts | 347° |
| 2026-04-16 21:15 | 33.82205 | -86.88053 | 21327 ft | 167 kts | 346° |
| 2026-04-16 21:15 | 33.83360 | -86.87905 | 21830 ft | 167 kts | 346° |
| 2026-04-16 21:16 | 33.84507 | -86.87758 | 22333 ft | 167 kts | 345° |
| 2026-04-16 21:16 | 33.85663 | -86.87611 | 22845 ft | 168 kts | 344° |
| 2026-04-16 21:16 | 33.86877 | -86.87472 | 23118 ft | 188 kts | 346° |
| 2026-04-16 21:16 | 33.88306 | -86.87310 | 23136 ft | 224 kts | 350° |
| 2026-04-16 21:17 | 33.89955 | -86.87087 | 23139 ft | 252 kts | 353° |
| 2026-04-16 21:17 | 33.91782 | -86.86833 | 23150 ft | 274 kts | 353° |
| 2026-04-16 21:17 | 33.93734 | -86.86575 | 23125 ft | 288 kts | 354° |
| 2026-04-16 21:17 | 33.95756 | -86.86313 | 23115 ft | 296 kts | 354° |
| 2026-04-16 21:18 | 33.97823 | -86.86045 | 23105 ft | 301 kts | 354° |
| 2026-04-16 21:18 | 33.99891 | -86.85776 | 23108 ft | 304 kts | 354° |
| 2026-04-16 21:18 | 34.01995 | -86.85504 | 23103 ft | 305 kts | 355° |
| 2026-04-16 21:18 | 34.04108 | -86.85232 | 23105 ft | 305 kts | 354° |
| 2026-04-16 21:19 | 34.06221 | -86.84960 | 23103 ft | 306 kts | 354° |
| 2026-04-16 21:19 | 34.08340 | -86.84686 | 23104 ft | 306 kts | 354° |
| 2026-04-16 21:19 | 34.10457 | -86.84415 | 23106 ft | 306 kts | 354° |
| 2026-04-16 21:19 | 34.12573 | -86.84142 | 23106 ft | 306 kts | 354° |
| 2026-04-16 21:20 | 34.14690 | -86.83868 | 23104 ft | 306 kts | 354° |
| 2026-04-16 21:20 | 34.16811 | -86.83594 | 23106 ft | 306 kts | 354° |
| 2026-04-16 21:20 | 34.18933 | -86.83322 | 23106 ft | 307 kts | 354° |
| 2026-04-16 21:20 | 34.21057 | -86.83047 | 23108 ft | 307 kts | 354° |
| 2026-04-16 21:21 | 34.23181 | -86.82772 | 23108 ft | 307 kts | 354° |
| 2026-04-16 21:21 | 34.25308 | -86.82497 | 23108 ft | 307 kts | 354° |
| 2026-04-16 21:21 | 34.27434 | -86.82222 | 23108 ft | 307 kts | 354° |
| 2026-04-16 21:21 | 34.29561 | -86.81946 | 23107 ft | 307 kts | 354° |
| 2026-04-16 21:22 | 34.31682 | -86.81672 | 23110 ft | 307 kts | 354° |
| 2026-04-16 21:22 | 34.33804 | -86.81397 | 23110 ft | 306 kts | 354° |
| 2026-04-16 21:22 | 34.35919 | -86.81123 | 23109 ft | 306 kts | 354° |
| 2026-04-16 21:22 | 34.38014 | -86.80851 | 23106 ft | 306 kts | 354° |
| 2026-04-16 21:23 | 34.40131 | -86.80577 | 23104 ft | 306 kts | 354° |
| 2026-04-16 21:23 | 34.42246 | -86.80302 | 23100 ft | 306 kts | 354° |
| 2026-04-16 21:23 | 34.44359 | -86.80026 | 23096 ft | 300 kts | 354° |
| 2026-04-16 21:23 | 34.46382 | -86.79247 | 22645 ft | 330 kts | 37° |
| 2026-04-16 21:24 | 34.48138 | -86.77512 | 22593 ft | 330 kts | 28° |
| 2026-04-16 21:24 | 34.50043 | -86.75684 | 21701 ft | 358 kts | 34° |
| 2026-04-16 21:24 | 34.51966 | -86.73861 | 21624 ft | 348 kts | 30° |
| 2026-04-16 21:24 | 34.53906 | -86.72067 | 21274 ft | 352 kts | 32° |
| 2026-04-16 21:25 | 34.55724 | -86.70042 | 20921 ft | 358 kts | 46° |
| 2026-04-16 21:25 | 34.57198 | -86.67646 | 20880 ft | 345 kts | 49° |
| 2026-04-16 21:25 | 34.58699 | -86.65575 | 20734 ft | 312 kts | 42° |
| 2026-04-16 21:25 | 34.60182 | -86.63700 | 19925 ft | 310 kts | 41° |
| 2026-04-16 21:26 | 34.61769 | -86.61811 | 18838 ft | 323 kts | 39° |
| 2026-04-16 21:26 | 34.63434 | -86.59964 | 17730 ft | 327 kts | 37° |
| 2026-04-16 21:26 | 34.65191 | -86.58215 | 16748 ft | 323 kts | 33° |
| 2026-04-16 21:26 | 34.67007 | -86.56717 | 16002 ft | 310 kts | 25° |
| 2026-04-16 21:27 | 34.68879 | -86.55522 | 15160 ft | 301 kts | 18° |
| 2026-04-16 21:27 | 34.70832 | -86.54588 | 13980 ft | 304 kts | 12° |
| 2026-04-16 21:27 | 34.72892 | -86.53960 | 12768 ft | 304 kts | 4° |
| 2026-04-16 21:27 | 34.74922 | -86.53748 | 12152 ft | 279 kts | 353° |
| 2026-04-16 21:28 | 34.76710 | -86.53995 | 11773 ft | 249 kts | 346° |
| 2026-04-16 21:28 | 34.78369 | -86.54561 | 10579 ft | 253 kts | 336° |
| 2026-04-16 21:28 | 34.80001 | -86.55384 | 9837 ft | 245 kts | 329° |
| 2026-04-16 21:28 | 34.81308 | -86.56460 | 9662 ft | 209 kts | 317° |
| 2026-04-16 21:29 | 34.82315 | -86.57569 | 9097 ft | 186 kts | 310° |
| 2026-04-16 21:29 | 34.82832 | -86.58389 | 8728 ft | 187 kts | 297° |
| 2026-04-16 21:29 | 34.83322 | -86.59878 | 8280 ft | 191 kts | 281° |
| 2026-04-16 21:29 | 34.83535 | -86.61447 | 7618 ft | 181 kts | 274° |
| 2026-04-16 21:30 | 34.83628 | -86.62950 | 6842 ft | 176 kts | 269° |
| 2026-04-16 21:30 | 34.83582 | -86.64422 | 6215 ft | 172 kts | 263° |
| 2026-04-16 21:30 | 34.83334 | -86.65870 | 5678 ft | 179 kts | 253° |
| 2026-04-16 21:30 | 34.82924 | -86.67338 | 4928 ft | 180 kts | 248° |
| 2026-04-16 21:31 | 34.82320 | -86.68687 | 4421 ft | 187 kts | 235° |
| 2026-04-16 21:31 | 34.81478 | -86.69893 | 3788 ft | 181 kts | 226° |
| 2026-04-16 21:31 | 34.80551 | -86.70851 | 3335 ft | 165 kts | 219° |
| 2026-04-16 21:31 | 34.79552 | -86.71722 | 2814 ft | 186 kts | 217° |
| 2026-04-16 21:32 | 34.78455 | -86.72590 | 2384 ft | 188 kts | 215° |
| 2026-04-16 21:32 | 34.77354 | -86.73309 | 2162 ft | 177 kts | 208° |
| 2026-04-16 21:32 | 34.76267 | -86.73913 | 1925 ft | 154 kts | 206° |
| 2026-04-16 21:32 | 34.75303 | -86.74323 | 1759 ft | 132 kts | 200° |
| 2026-04-16 21:33 | 34.74424 | -86.74719 | 1606 ft | 150 kts | 207° |
| 2026-04-16 21:33 | 34.73461 | -86.75182 | 1514 ft | 149 kts | 206° |
| 2026-04-16 21:33 | 34.72530 | -86.75626 | 1335 ft | 135 kts | 199° |
| 2026-04-16 21:33 | 34.71611 | -86.75903 | 1135 ft | 140 kts | 195° |
| 2026-04-16 21:34 | 34.70623 | -86.76132 | 1111 ft | 152 kts | 192° |
| 2026-04-16 21:34 | 34.69584 | -86.76289 | 1080 ft | 144 kts | 189° |
| 2026-04-16 21:34 | 34.68667 | -86.76341 | 1107 ft | 124 kts | 185° |
| 2026-04-16 21:34 | 34.67773 | -86.76416 | 1024 ft | 128 kts | 189° |
| 2026-04-16 21:35 | 34.66882 | -86.76487 | 907 ft | 132 kts | 185° |
| 2026-04-16 21:35 | 34.65974 | -86.76527 | 763 ft | 131 kts | 184° |
| 2026-04-16 21:35 | 34.65067 | -86.76544 | 652 ft | 129 kts | 186° |
| 2026-04-16 21:35 | 34.64286 | -86.76569 | 631 ft | 82 kts | 180° |
| 2026-04-16 21:36 | 34.63859 | -86.76581 | 628 ft | 60 kts | 176° |
| 2026-04-16 21:36 | 34.63697 | -86.76484 | 635 ft | 19 kts | 82° |
| 2026-04-16 21:36 | 34.63782 | -86.76325 | 629 ft | 33 kts | 11° |
| 2026-04-16 21:36 | 34.63868 | -86.76242 | 632 ft | 0 kts | 90° |